createdAt,value
2022-12-06T00:00:11.654Z,16.08
2022-12-06T00:02:41.397Z,16.30
2022-12-06T00:05:11.161Z,16.67
2022-12-06T00:07:41.337Z,16.78
2022-12-06T00:10:11.435Z,16.80
2022-12-06T00:12:41.159Z,16.85
2022-12-06T00:15:11.145Z,17.06
2022-12-06T00:17:43.153Z,17.13
2022-12-06T00:20:13.612Z,17.29
2022-12-06T00:22:52.179Z,17.01
2022-12-06T00:25:21.910Z,17.41
2022-12-06T00:27:52.454Z,17.48
2022-12-06T00:30:22.346Z,17.35
2022-12-06T00:32:52.063Z,17.32
2022-12-06T00:35:21.728Z,17.45
2022-12-06T00:37:51.384Z,17.81
2022-12-06T00:40:21.086Z,17.90
2022-12-06T00:42:50.812Z,18.21
2022-12-06T00:45:20.501Z,18.37
2022-12-06T00:47:50.210Z,18.04
2022-12-06T00:50:20.027Z,18.12
2022-12-06T00:52:49.732Z,18.15
2022-12-06T00:55:19.668Z,18.08
2022-12-06T00:57:49.981Z,17.98
2022-12-06T01:00:20.007Z,18.10
2022-12-06T01:02:49.764Z,18.26
2022-12-06T01:05:19.686Z,18.04
2022-12-06T01:07:49.467Z,17.73
2022-12-06T01:10:19.419Z,17.55
2022-12-06T01:12:49.047Z,17.72
2022-12-06T01:15:19.129Z,17.44
2022-12-06T01:17:48.648Z,17.48
2022-12-06T01:20:18.296Z,17.46
2022-12-06T01:22:48.003Z,17.33
2022-12-06T01:25:17.799Z,17.33
2022-12-06T01:27:47.403Z,17.70
2022-12-06T01:30:17.248Z,17.30
2022-12-06T01:32:46.862Z,17.36
2022-12-06T01:35:16.601Z,17.30
2022-12-06T01:37:46.209Z,17.37
2022-12-06T01:40:16.247Z,17.22
2022-12-06T01:42:45.916Z,17.19
2022-12-06T01:45:15.835Z,17.21
2022-12-06T01:47:46.264Z,17.00
2022-12-06T01:50:22.318Z,17.07
2022-12-06T01:53:01.015Z,16.76
2022-12-06T01:55:34.960Z,16.85
2022-12-06T01:58:13.251Z,16.58
2022-12-06T02:00:43.216Z,16.90
2022-12-06T02:03:19.757Z,16.83
2022-12-06T02:05:50.257Z,16.63
2022-12-06T02:08:22.060Z,16.47
2022-12-06T02:10:51.728Z,16.70
2022-12-06T02:13:24.236Z,16.81
2022-12-06T02:16:18.107Z,16.86
2022-12-06T02:19:08.834Z,16.50
2022-12-06T02:21:53.679Z,16.93
2022-12-06T02:24:38.490Z,16.59
2022-12-06T02:27:23.678Z,16.37
2022-12-06T02:30:09.577Z,16.51
2022-12-06T02:32:58.699Z,16.32
2022-12-06T02:35:43.740Z,16.59
2022-12-06T02:38:35.828Z,16.26
2022-12-06T02:41:31.377Z,16.67
2022-12-06T02:44:14.734Z,16.76
2022-12-06T02:46:45.299Z,16.42
2022-12-06T02:49:17.165Z,16.58
2022-12-06T02:51:49.603Z,16.14
2022-12-06T02:54:20.300Z,16.55
2022-12-06T02:56:49.878Z,16.49
2022-12-06T02:59:19.522Z,16.50
2022-12-06T03:01:55.418Z,16.22
2022-12-06T03:04:58.406Z,16.54
2022-12-06T03:07:42.073Z,16.04
2022-12-06T03:10:22.451Z,16.32
2022-12-06T03:13:36.731Z,16.38
2022-12-06T03:16:50.537Z,16.28
2022-12-06T03:19:29.130Z,16.39
2022-12-06T03:22:22.288Z,16.26
2022-12-06T03:24:53.254Z,16.32
2022-12-06T03:27:24.570Z,16.55
2022-12-06T03:29:59.457Z,16.33
2022-12-06T03:32:34.407Z,16.58
2022-12-06T03:35:10.358Z,16.83
2022-12-06T03:37:45.682Z,16.91
2022-12-06T03:40:28.669Z,16.86
2022-12-06T03:42:59.963Z,17.04
2022-12-06T03:46:01.577Z,16.68
2022-12-06T03:48:55.888Z,16.83
2022-12-06T03:51:30.858Z,17.02
2022-12-06T03:54:03.580Z,16.90
2022-12-06T03:56:38.292Z,17.05
2022-12-06T03:59:09.733Z,16.85
2022-12-06T04:01:41.044Z,17.01
2022-12-06T04:04:12.369Z,17.32
2022-12-06T04:06:42.013Z,17.26
2022-12-06T04:09:29.629Z,17.48
2022-12-06T04:11:59.226Z,16.97
2022-12-06T04:14:33.926Z,17.26
2022-12-06T04:17:21.275Z,17.12
2022-12-06T04:19:52.223Z,17.09
2022-12-06T04:22:40.159Z,17.02
2022-12-06T04:25:10.040Z,17.13
2022-12-06T04:27:57.437Z,16.85
2022-12-06T04:30:45.409Z,17.01
2022-12-06T04:33:33.442Z,17.11
2022-12-06T04:36:20.831Z,16.80
2022-12-06T04:38:50.389Z,16.77
2022-12-06T04:41:38.005Z,17.16
2022-12-06T04:44:08.068Z,17.08
2022-12-06T04:46:37.847Z,17.06
2022-12-06T04:49:07.423Z,17.02
2022-12-06T04:51:37.060Z,17.45
2022-12-06T04:54:07.180Z,17.11
2022-12-06T04:56:37.282Z,17.49
2022-12-06T04:59:07.110Z,17.32
2022-12-06T05:01:36.649Z,17.49
2022-12-06T05:04:06.492Z,17.64
2022-12-06T05:06:36.135Z,17.67
2022-12-06T05:09:06.458Z,17.67
2022-12-06T05:11:36.132Z,17.75
2022-12-06T05:14:05.754Z,17.65
2022-12-06T05:16:35.489Z,17.86
2022-12-06T05:19:05.390Z,17.93
2022-12-06T05:21:34.906Z,17.97
2022-12-06T05:24:04.528Z,17.77
2022-12-06T05:26:34.182Z,17.77
2022-12-06T05:29:03.818Z,17.93
2022-12-06T05:31:33.581Z,17.49
2022-12-06T05:34:03.254Z,17.81
2022-12-06T05:36:32.841Z,18.04
2022-12-06T05:39:02.397Z,17.89
2022-12-06T05:41:31.973Z,17.91
2022-12-06T05:44:01.566Z,17.36
2022-12-06T05:46:31.221Z,17.86
2022-12-06T05:49:00.765Z,17.77
2022-12-06T05:51:30.385Z,17.67
2022-12-06T05:54:00.062Z,17.54
2022-12-06T05:56:29.676Z,17.45
2022-12-06T05:58:59.222Z,17.74
2022-12-06T06:01:28.764Z,17.26
2022-12-06T06:03:58.254Z,17.92
2022-12-06T06:06:27.822Z,18.04
2022-12-06T06:08:57.429Z,18.13
2022-12-06T06:11:26.982Z,18.41
2022-12-06T06:13:56.490Z,17.97
2022-12-06T06:16:26.132Z,18.08
2022-12-06T06:18:55.651Z,18.04
2022-12-06T06:21:25.177Z,18.10
2022-12-06T06:23:54.776Z,18.24
2022-12-06T06:26:24.391Z,18.69
2022-12-06T06:28:53.973Z,18.75
2022-12-06T06:31:23.681Z,18.37
2022-12-06T06:33:53.292Z,18.70
2022-12-06T06:36:22.800Z,18.20
2022-12-06T06:38:52.340Z,18.42
2022-12-06T06:41:21.913Z,18.38
2022-12-06T06:43:51.514Z,18.48
2022-12-06T06:46:21.299Z,18.11
2022-12-06T06:48:50.899Z,18.44
2022-12-06T06:51:20.449Z,18.26
2022-12-06T06:53:50.179Z,18.43
2022-12-06T06:56:21.695Z,18.24
2022-12-06T06:58:51.482Z,18.21
2022-12-06T07:01:23.897Z,17.96
2022-12-06T07:03:53.876Z,18.31
2022-12-06T07:06:23.554Z,18.27
2022-12-06T07:08:53.216Z,18.21
2022-12-06T07:11:22.834Z,18.33
2022-12-06T07:13:52.891Z,18.13
2022-12-06T07:16:22.896Z,18.34
2022-12-06T07:18:53.052Z,18.19
2022-12-06T07:21:25.025Z,18.09
2022-12-06T07:23:54.556Z,18.42
2022-12-06T07:26:25.829Z,18.14
2022-12-06T07:28:55.350Z,18.14
2022-12-06T07:31:27.861Z,18.18
2022-12-06T07:34:02.260Z,18.07
2022-12-06T07:36:33.783Z,18.41
2022-12-06T07:39:03.489Z,18.33
2022-12-06T07:41:56.211Z,18.09
2022-12-06T07:44:43.808Z,18.30
2022-12-06T07:47:13.379Z,18.40
2022-12-06T07:49:42.931Z,18.44
2022-12-06T07:52:12.456Z,18.21
2022-12-06T07:54:43.023Z,18.16
2022-12-06T07:57:12.579Z,17.95
2022-12-06T07:59:42.110Z,18.28
2022-12-06T08:02:23.248Z,18.41
2022-12-06T08:04:52.908Z,18.66
2022-12-06T08:07:25.589Z,18.45
2022-12-06T08:09:55.928Z,18.53
2022-12-06T08:12:25.943Z,18.23
2022-12-06T08:14:59.508Z,18.16
2022-12-06T08:17:30.066Z,18.39
2022-12-06T08:19:59.945Z,18.52
2022-12-06T08:22:30.519Z,18.50
2022-12-06T08:25:00.034Z,18.53
2022-12-06T08:27:29.575Z,18.57
2022-12-06T08:29:59.419Z,18.77
2022-12-06T08:32:29.142Z,18.68
2022-12-06T08:34:58.669Z,18.79
2022-12-06T08:37:28.267Z,18.86
2022-12-06T08:39:58.073Z,18.83
2022-12-06T08:42:27.935Z,18.89
2022-12-06T08:44:57.751Z,18.97
2022-12-06T08:47:27.253Z,18.93
2022-12-06T08:49:56.839Z,19.01
2022-12-06T08:52:26.562Z,19.02
2022-12-06T08:54:56.094Z,19.06
2022-12-06T08:57:25.645Z,19.11
2022-12-06T08:59:55.390Z,19.13
2022-12-06T09:02:24.950Z,19.14
2022-12-06T09:04:54.990Z,18.98
2022-12-06T09:07:25.082Z,19.12
2022-12-06T09:09:57.408Z,19.15
2022-12-06T09:12:27.930Z,19.11
2022-12-06T09:14:57.444Z,19.24
2022-12-06T09:17:27.012Z,19.28
2022-12-06T09:19:58.551Z,19.31
2022-12-06T09:22:31.715Z,19.34
2022-12-06T09:25:01.245Z,19.31
2022-12-06T09:27:33.298Z,19.24
2022-12-06T09:30:03.058Z,19.41
2022-12-06T09:32:32.863Z,19.25
2022-12-06T09:35:02.895Z,19.29
2022-12-06T09:37:33.932Z,19.24
2022-12-06T09:40:13.344Z,19.37
2022-12-06T09:42:45.570Z,19.32
2022-12-06T09:45:37.251Z,19.34
2022-12-06T09:48:36.245Z,19.49
2022-12-06T09:51:08.475Z,19.56
2022-12-06T09:53:49.998Z,19.66
2022-12-06T09:56:33.706Z,19.74
2022-12-06T09:59:03.268Z,19.76
2022-12-06T10:02:13.192Z,19.74
2022-12-06T10:05:00.756Z,19.63
2022-12-06T10:07:35.255Z,19.65
2022-12-06T10:10:23.232Z,19.63
2022-12-06T10:13:11.300Z,19.62
2022-12-06T10:16:11.285Z,19.48
2022-12-06T10:19:00.548Z,19.86
2022-12-06T10:21:40.062Z,19.88
2022-12-06T10:24:50.220Z,19.98
2022-12-06T10:27:35.614Z,19.89
2022-12-06T10:30:15.632Z,19.95
2022-12-06T10:32:48.094Z,19.83
2022-12-06T10:35:51.293Z,19.85
2022-12-06T10:38:55.095Z,19.86
2022-12-06T10:42:06.396Z,19.89
2022-12-06T10:44:57.393Z,19.87
2022-12-06T10:47:36.986Z,19.78
2022-12-06T10:50:28.519Z,19.96
2022-12-06T10:53:14.070Z,19.96
2022-12-06T10:55:47.863Z,19.91
2022-12-06T10:58:40.708Z,20.10
2022-12-06T11:01:23.918Z,19.99
2022-12-06T11:04:04.775Z,19.92
2022-12-06T11:06:36.988Z,19.97
2022-12-06T11:09:18.844Z,19.91
2022-12-06T11:11:51.019Z,19.96
2022-12-06T11:14:26.667Z,19.96
2022-12-06T11:17:27.307Z,19.97
2022-12-06T11:20:03.165Z,19.99
2022-12-06T11:23:07.472Z,20.05
2022-12-06T11:26:22.453Z,19.99
2022-12-06T11:29:06.662Z,20.09
2022-12-06T11:31:57.407Z,20.01
2022-12-06T11:34:38.969Z,19.96
2022-12-06T11:37:09.548Z,20.15
2022-12-06T11:39:39.156Z,20.10
2022-12-06T11:42:10.674Z,20.05
2022-12-06T11:45:05.074Z,20.02
2022-12-06T11:47:35.025Z,20.10
2022-12-06T11:50:09.331Z,20.04
2022-12-06T11:53:22.000Z,19.98
2022-12-06T11:55:59.617Z,20.07
2022-12-06T11:58:39.388Z,20.21
2022-12-06T12:01:15.834Z,20.17
2022-12-06T12:03:47.335Z,20.01
2022-12-06T12:06:23.111Z,20.11
2022-12-06T12:09:07.478Z,20.11
2022-12-06T12:11:43.653Z,20.06
2022-12-06T12:14:27.439Z,20.05
2022-12-06T12:17:04.334Z,20.08
2022-12-06T12:19:43.268Z,20.15
2022-12-06T12:22:44.687Z,20.10
2022-12-06T12:25:43.853Z,20.24
2022-12-06T12:28:37.098Z,20.25
2022-12-06T12:31:28.114Z,20.14
2022-12-06T12:34:28.043Z,20.17
2022-12-06T12:37:06.841Z,20.22
2022-12-06T12:39:46.714Z,20.20
2022-12-06T12:42:34.695Z,20.28
2022-12-06T12:45:07.604Z,20.28
2022-12-06T12:47:38.112Z,20.33
2022-12-06T12:50:21.798Z,20.23
2022-12-06T12:52:52.148Z,20.25
2022-12-06T12:55:26.292Z,20.23
2022-12-06T12:58:01.944Z,20.24
2022-12-06T13:00:39.434Z,20.25
2022-12-06T13:03:49.554Z,20.29
2022-12-06T13:06:18.180Z,20.26
2022-12-06T13:08:48.210Z,20.42
2022-12-06T13:11:18.443Z,20.24
2022-12-06T13:13:52.172Z,20.23
2022-12-06T13:16:34.442Z,20.19
2022-12-06T13:19:04.878Z,20.38
2022-12-06T13:21:41.563Z,20.26
2022-12-06T13:24:14.145Z,20.30
2022-12-06T13:26:59.883Z,20.48
2022-12-06T13:29:38.284Z,20.33
2022-12-06T13:32:30.583Z,20.48
2022-12-06T13:35:05.024Z,20.27
2022-12-06T13:37:44.810Z,20.11
2022-12-06T13:40:37.350Z,20.25
2022-12-06T13:43:29.822Z,20.36
2022-12-06T13:46:12.348Z,20.26
2022-12-06T13:48:41.919Z,20.37
2022-12-06T13:51:37.092Z,20.42
2022-12-06T13:54:06.709Z,20.29
2022-12-06T13:56:36.184Z,20.44
2022-12-06T13:59:28.792Z,20.55
2022-12-06T14:02:00.127Z,20.30
2022-12-06T14:07:04.252Z,20.28
2022-12-06T14:09:45.746Z,20.40
2022-12-06T14:12:25.571Z,20.39
2022-12-06T14:14:58.667Z,20.27
2022-12-06T14:18:00.663Z,20.47
2022-12-06T14:20:31.833Z,20.31
2022-12-06T14:23:01.506Z,20.30
2022-12-06T14:25:32.931Z,20.33
2022-12-06T14:28:15.296Z,20.37
2022-12-06T14:30:45.944Z,20.52
2022-12-06T14:33:25.245Z,20.40
2022-12-06T14:35:56.313Z,20.52
2022-12-06T14:38:33.337Z,20.49
2022-12-06T14:41:20.968Z,20.32
2022-12-06T14:43:51.230Z,20.38
2022-12-06T14:46:24.219Z,20.50
2022-12-06T14:49:11.988Z,20.60
2022-12-06T14:51:42.548Z,20.43
2022-12-06T14:54:36.523Z,20.50
2022-12-06T14:57:06.710Z,20.60
2022-12-06T15:00:13.385Z,20.65
2022-12-06T15:02:30.109Z,20.54
2022-12-06T15:05:00.369Z,20.46
2022-12-06T15:07:44.763Z,20.43
2022-12-06T15:10:27.047Z,20.50
2022-12-06T15:12:57.044Z,20.63
2022-12-06T15:15:42.666Z,20.63
2022-12-06T15:18:24.261Z,20.57
2022-12-06T15:20:55.553Z,20.60
2022-12-06T15:23:42.511Z,20.47
2022-12-06T15:26:15.245Z,20.46
2022-12-06T15:28:45.318Z,20.54
2022-12-06T15:31:28.851Z,20.57
2022-12-06T15:33:59.123Z,20.64
2022-12-06T15:36:32.523Z,20.55
2022-12-06T15:39:02.174Z,20.38
2022-12-06T15:41:32.028Z,20.63
2022-12-06T15:44:01.601Z,20.48
2022-12-06T15:46:34.178Z,20.64
2022-12-06T15:49:03.729Z,20.66
2022-12-06T15:51:33.278Z,20.86
2022-12-06T15:54:04.448Z,20.80
2022-12-06T15:56:34.068Z,20.72
2022-12-06T15:59:03.669Z,20.74
2022-12-06T16:01:44.743Z,20.74
2022-12-06T16:04:23.141Z,20.72
2022-12-06T16:06:53.200Z,20.64
2022-12-06T16:09:23.118Z,20.77
2022-12-06T16:11:52.742Z,20.71
2022-12-06T16:14:22.838Z,20.70
2022-12-06T16:16:52.411Z,20.70
2022-12-06T16:19:22.049Z,20.83
2022-12-06T16:21:57.840Z,20.89
2022-12-06T16:24:27.583Z,20.74
2022-12-06T16:26:57.100Z,20.94
2022-12-06T16:29:26.644Z,20.73
2022-12-06T16:31:56.253Z,20.80
2022-12-06T16:34:26.641Z,20.85
2022-12-06T16:37:07.967Z,20.97
2022-12-06T16:39:37.784Z,20.80
2022-12-06T16:42:07.813Z,21.04
2022-12-06T16:44:52.303Z,20.92
2022-12-06T16:49:51.794Z,21.02
2022-12-06T16:52:21.372Z,20.96
2022-12-06T16:54:50.928Z,21.02
2022-12-06T16:57:22.087Z,20.79
2022-12-06T16:59:51.912Z,20.85
2022-12-06T17:02:32.948Z,20.85
2022-12-06T17:05:07.467Z,20.89
2022-12-06T17:07:38.292Z,20.90
2022-12-06T17:10:08.915Z,20.99
2022-12-06T17:12:38.468Z,20.92
2022-12-06T17:15:09.629Z,21.05
2022-12-06T17:17:39.217Z,20.84
2022-12-06T17:20:10.084Z,20.83
2022-12-06T17:22:41.555Z,20.81
2022-12-06T17:25:13.305Z,21.00
2022-12-06T17:27:42.895Z,21.08
2022-12-06T17:30:21.504Z,21.13
2022-12-06T17:32:51.036Z,21.05
2022-12-06T17:35:20.573Z,21.05
2022-12-06T17:37:50.503Z,21.10
2022-12-06T17:40:20.139Z,21.09
2022-12-06T17:43:01.789Z,21.02
2022-12-06T17:45:31.478Z,21.04
2022-12-06T17:48:01.136Z,20.98
2022-12-06T17:50:30.787Z,20.96
2022-12-06T17:53:00.317Z,20.97
2022-12-06T17:55:29.888Z,21.00
2022-12-06T17:57:59.462Z,21.13
2022-12-06T18:00:29.109Z,21.06
2022-12-06T18:02:58.813Z,21.05
2022-12-06T18:05:28.627Z,21.20
2022-12-06T18:07:58.240Z,21.31
2022-12-06T18:10:27.789Z,21.29
2022-12-06T18:13:01.265Z,21.17
2022-12-06T18:15:42.323Z,21.22
2022-12-06T18:18:11.963Z,21.12
2022-12-06T18:20:42.640Z,21.31
2022-12-06T18:23:12.653Z,21.23
2022-12-06T18:25:45.456Z,21.34
2022-12-06T18:28:15.287Z,21.21
2022-12-06T18:30:44.892Z,21.29
2022-12-06T18:33:19.178Z,21.31
2022-12-06T18:35:53.824Z,21.33
2022-12-06T18:38:23.461Z,21.60
2022-12-06T18:40:53.020Z,21.35
2022-12-06T18:43:22.682Z,21.55
2022-12-06T18:46:03.228Z,21.47
2022-12-06T18:48:33.542Z,21.62
2022-12-06T18:51:08.009Z,21.42
2022-12-06T18:53:38.500Z,21.41
2022-12-06T18:56:14.529Z,21.80
2022-12-06T18:58:44.676Z,21.30
2022-12-06T19:01:32.220Z,21.53
2022-12-06T19:04:04.642Z,21.53
2022-12-06T19:06:39.664Z,21.55
2022-12-06T19:09:12.293Z,21.61
2022-12-06T19:11:43.826Z,21.65
2022-12-06T19:14:13.365Z,21.61
2022-12-06T19:16:44.389Z,21.65
2022-12-06T19:19:17.216Z,21.66
2022-12-06T19:21:48.418Z,21.61
2022-12-06T19:24:29.259Z,21.59
2022-12-06T19:27:02.283Z,21.48
2022-12-06T19:29:31.845Z,21.61
2022-12-06T19:32:01.857Z,21.64
2022-12-06T19:34:31.801Z,21.68
2022-12-06T19:37:01.539Z,21.65
2022-12-06T19:39:31.121Z,21.77
2022-12-06T19:42:18.799Z,21.72
2022-12-06T19:44:48.323Z,21.80
2022-12-06T19:47:17.943Z,21.83
2022-12-06T19:49:47.625Z,21.84
2022-12-06T19:52:17.268Z,21.61
2022-12-06T19:54:46.901Z,21.83
2022-12-06T19:57:17.077Z,21.77
2022-12-06T19:59:46.647Z,21.95
2022-12-06T20:02:16.288Z,21.71
2022-12-06T20:04:47.643Z,21.78
2022-12-06T20:07:17.205Z,21.92
2022-12-06T20:09:46.808Z,21.86
2022-12-06T20:12:16.426Z,21.78
2022-12-06T20:14:48.756Z,21.57
2022-12-06T20:17:23.651Z,21.83
2022-12-06T20:19:53.398Z,21.79
2022-12-06T20:22:24.230Z,22.00
2022-12-06T20:24:53.725Z,22.04
2022-12-06T20:27:43.100Z,22.00
2022-12-06T20:30:13.228Z,21.98
2022-12-06T20:32:43.402Z,21.98
2022-12-06T20:35:12.948Z,21.97
2022-12-06T20:37:42.545Z,22.08
2022-12-06T20:40:12.655Z,21.98
2022-12-06T20:42:42.251Z,21.91
2022-12-06T20:45:11.925Z,22.04
2022-12-06T20:47:41.553Z,22.08
2022-12-06T20:50:11.557Z,22.10
2022-12-06T20:52:41.128Z,22.28
2022-12-06T20:55:11.296Z,23.58
2022-12-06T20:57:40.856Z,24.34
2022-12-06T21:00:13.004Z,24.60
2022-12-06T21:02:42.884Z,24.21
2022-12-06T21:05:12.544Z,24.02
2022-12-06T21:07:42.145Z,23.25
2022-12-06T21:10:12.347Z,22.75
2022-12-06T21:12:41.925Z,22.25
2022-12-06T21:15:11.905Z,22.08
2022-12-06T21:17:41.561Z,21.90
2022-12-06T21:20:11.406Z,21.43
2022-12-06T21:22:40.980Z,21.39
2022-12-06T21:25:11.000Z,21.45
2022-12-06T21:27:40.475Z,21.28
2022-12-06T21:30:10.690Z,21.13
2022-12-06T21:32:40.212Z,20.99
2022-12-06T21:35:10.055Z,20.90
2022-12-06T21:37:39.636Z,20.77
2022-12-06T21:40:09.875Z,20.77
2022-12-06T21:42:40.229Z,20.66
2022-12-06T21:45:10.206Z,20.62
2022-12-06T21:47:39.726Z,20.75
2022-12-06T21:50:10.290Z,20.36
2022-12-06T21:52:40.406Z,20.49
2022-12-06T21:55:10.254Z,20.09
2022-12-06T21:57:39.878Z,19.89
2022-12-06T22:00:10.221Z,20.00
2022-12-06T22:02:39.907Z,19.99
2022-12-06T22:05:09.908Z,19.68
2022-12-06T22:07:39.575Z,19.63
2022-12-06T22:10:09.925Z,19.67
2022-12-06T22:12:39.480Z,19.73
2022-12-06T22:15:09.611Z,19.43
2022-12-06T22:17:39.716Z,19.31
2022-12-06T22:20:09.930Z,18.95
2022-12-06T22:22:39.493Z,19.68
2022-12-06T22:25:12.615Z,19.49
2022-12-06T22:27:44.588Z,19.65
2022-12-06T22:30:14.396Z,19.25
2022-12-06T22:32:43.976Z,19.40
2022-12-06T22:35:13.605Z,19.41
2022-12-06T22:37:43.517Z,19.45
2022-12-06T22:40:13.679Z,19.44
2022-12-06T22:42:43.239Z,19.16
2022-12-06T22:45:13.191Z,19.20
2022-12-06T22:47:42.743Z,19.32
2022-12-06T22:50:12.374Z,19.20
2022-12-06T22:52:41.889Z,19.09
2022-12-06T22:55:11.526Z,19.23
2022-12-06T22:57:41.049Z,19.70
2022-12-06T23:00:11.107Z,19.68
2022-12-06T23:02:40.639Z,19.99
2022-12-06T23:05:10.524Z,20.13
2022-12-06T23:07:40.187Z,20.56
2022-12-06T23:10:10.500Z,20.36
2022-12-06T23:12:41.615Z,20.54
2022-12-06T23:15:11.439Z,20.28
2022-12-06T23:17:41.113Z,20.08
2022-12-06T23:20:11.145Z,19.73
2022-12-06T23:22:40.995Z,19.62
2022-12-06T23:25:10.892Z,19.50
2022-12-06T23:27:40.482Z,19.33
2022-12-06T23:30:10.902Z,19.57
2022-12-06T23:32:40.489Z,19.41
2022-12-06T23:35:10.542Z,19.30
2022-12-06T23:37:40.118Z,19.27
2022-12-06T23:40:10.472Z,19.26
2022-12-06T23:42:40.082Z,18.94
2022-12-06T23:45:10.207Z,19.08
2022-12-06T23:47:39.788Z,18.94
2022-12-06T23:50:10.017Z,19.24
2022-12-06T23:52:39.619Z,18.73
2022-12-06T23:55:09.438Z,19.00
2022-12-06T23:57:38.985Z,19.51
